Time;durP1;ratioP1;P1;durP2;ratioP2;P2;SDS_P1;SDS_P2;PMS_P1;PMS_P2;Temp;Humidity;BMP_temperature;BMP_pressure;BME280_temperature;BME280_humidity;BME280_pressure;Samples;Min_cycle;Max_cycle;Signal;HPM_P1;HPM_P2
2024/03/02 00:01:17;;;;;;;4.45;3.25;;;;;;;;;;5070926;28;20498;-63
2024/03/02 00:03:45;;;;;;;5.78;3.35;;;;;;;;;;5081103;28;20127;-65
2024/03/02 00:06:15;;;;;;;5.57;3.65;;;;;;;;;;5073418;28;20140;-64
2024/03/02 00:08:44;;;;;;;4.32;3.15;;;;;;;;;;5082751;28;20133;-65
2024/03/02 00:11:14;;;;;;;5.85;3.42;;;;;;;;;;5097709;28;20052;-65
2024/03/02 00:13:43;;;;;;;4.07;2.92;;;;;;;;;;5090077;28;20117;-64
2024/03/02 00:16:12;;;;;;;4.53;3.38;;;;;;;;;;5090853;28;20105;-64
2024/03/02 00:18:40;;;;;;;4.45;3.20;;;;;;;;;;5091307;28;20072;-64
2024/03/02 00:21:09;;;;;;;5.35;3.47;;;;;;;;;;5090090;28;20044;-64
2024/03/02 00:23:40;;;;;;;6.65;4.00;;;;;;;;;;5089147;28;20047;-65
2024/03/02 00:26:08;;;;;;;3.67;3.05;;;;;;;;;;5090376;28;20048;-64
2024/03/02 00:28:38;;;;;;;5.63;3.72;;;;;;;;;;5090005;28;20059;-67
2024/03/02 00:31:07;;;;;;;6.55;4.07;;;;;;;;;;5094450;28;20047;-63
2024/03/02 00:33:37;;;;;;;5.35;3.80;;;;;;;;;;5088973;28;20055;-64
2024/03/02 00:36:06;;;;;;;6.28;3.80;;;;;;;;;;5090637;28;20528;-65
2024/03/02 00:38:35;;;;;;;9.13;4.55;;;;;;;;;;5089182;28;20052;-64
2024/03/02 00:41:07;;;;;;;6.80;4.07;;;;;;;;;;5084410;28;20060;-63
2024/03/02 00:43:46;;;;;;;7.03;3.95;;;;;;;;;;5093657;28;20067;-65
2024/03/02 00:46:19;;;;;;;6.57;4.03;;;;;;;;;;5090327;28;20320;-65
2024/03/02 00:48:52;;;;;;;4.93;3.22;;;;;;;;;;5091279;28;20127;-64
2024/03/02 00:51:21;;;;;;;5.85;3.78;;;;;;;;;;5088553;28;20483;-63
2024/03/02 00:53:50;;;;;;;5.40;3.10;;;;;;;;;;5090216;28;20036;-64
2024/03/02 00:56:20;;;;;;;6.47;3.40;;;;;;;;;;5089787;28;20051;-64
2024/03/02 00:58:48;;;;;;;5.53;3.95;;;;;;;;;;5098097;28;20071;-66
2024/03/02 01:01:17;;;;;;;5.50;3.60;;;;;;;;;;5085346;28;20047;-65
2024/03/02 01:03:44;;;;;;;4.80;3.40;;;;;;;;;;5089599;28;20044;-63
2024/03/02 01:06:13;;;;;;;5.55;3.97;;;;;;;;;;5094325;28;20534;-63
2024/03/02 01:08:41;;;;;;;4.85;3.33;;;;;;;;;;5095185;28;20511;-67
2024/03/02 01:11:10;;;;;;;6.40;4.15;;;;;;;;;;5087625;28;20048;-66
2024/03/02 01:13:40;;;;;;;4.88;3.42;;;;;;;;;;5088553;28;20675;-64
2024/03/02 01:16:08;;;;;;;5.97;3.72;;;;;;;;;;5088496;28;20043;-63
2024/03/02 01:18:37;;;;;;;5.30;3.33;;;;;;;;;;5089858;28;20044;-63
2024/03/02 01:21:05;;;;;;;6.00;3.80;;;;;;;;;;5090269;28;20137;-64
2024/03/02 01:23:34;;;;;;;6.32;3.45;;;;;;;;;;5079786;28;20705;-66
2024/03/02 01:26:02;;;;;;;6.13;4.05;;;;;;;;;;5088976;28;20098;-65
2024/03/02 01:28:30;;;;;;;6.43;3.83;;;;;;;;;;5088930;28;20046;-63
2024/03/02 01:31:01;;;;;;;6.35;4.05;;;;;;;;;;5088429;28;20514;-63
2024/03/02 01:33:29;;;;;;;6.35;4.13;;;;;;;;;;5089547;28;20040;-65
2024/03/02 01:35:57;;;;;;;5.13;3.85;;;;;;;;;;5089419;28;20048;-65
2024/03/02 01:38:26;;;;;;;6.63;4.03;;;;;;;;;;5087310;28;20144;-66
2024/03/02 01:40:56;;;;;;;6.13;3.85;;;;;;;;;;5083035;28;20156;-63
2024/03/02 01:43:25;;;;;;;6.07;3.67;;;;;;;;;;5090467;28;20052;-63
2024/03/02 01:45:54;;;;;;;4.32;3.55;;;;;;;;;;5088404;28;20087;-64
2024/03/02 01:48:24;;;;;;;6.53;3.60;;;;;;;;;;5088418;28;20062;-66
2024/03/02 01:50:52;;;;;;;5.60;4.22;;;;;;;;;;5086495;28;20059;-66
2024/03/02 01:53:21;;;;;;;6.60;4.05;;;;;;;;;;5092804;28;20537;-64
2024/03/02 01:55:49;;;;;;;5.63;3.65;;;;;;;;;;5089998;28;20081;-64
2024/03/02 01:58:18;;;;;;;4.88;3.50;;;;;;;;;;5089397;28;20044;-66
2024/03/02 02:00:47;;;;;;;5.93;3.28;;;;;;;;;;5086620;28;20052;-69
2024/03/02 02:03:16;;;;;;;6.55;3.65;;;;;;;;;;5088860;28;20044;-67
2024/03/02 02:05:47;;;;;;;4.97;3.55;;;;;;;;;;5083706;28;20051;-63
2024/03/02 02:08:16;;;;;;;4.88;3.38;;;;;;;;;;5079674;28;20067;-63
2024/03/02 02:10:44;;;;;;;5.63;3.45;;;;;;;;;;5067725;28;20162;-66
2024/03/02 02:13:13;;;;;;;3.35;2.80;;;;;;;;;;5068151;28;20045;-66
2024/03/02 02:15:42;;;;;;;5.97;3.90;;;;;;;;;;5071878;28;20448;-64
2024/03/02 02:18:11;;;;;;;5.70;3.40;;;;;;;;;;5067335;28;20071;-63
2024/03/02 02:20:38;;;;;;;7.80;3.90;;;;;;;;;;5058791;28;20045;-63
2024/03/02 02:23:09;;;;;;;5.60;3.75;;;;;;;;;;5068666;28;20099;-64
2024/03/02 02:25:38;;;;;;;5.45;3.60;;;;;;;;;;5073901;28;20119;-65
2024/03/02 02:28:07;;;;;;;6.10;3.80;;;;;;;;;;5070302;28;20048;-64
2024/03/02 02:30:35;;;;;;;7.13;3.65;;;;;;;;;;5067196;28;20163;-63
2024/03/02 02:33:04;;;;;;;5.93;3.55;;;;;;;;;;5070591;28;20040;-64
2024/03/02 02:35:32;;;;;;;6.53;3.55;;;;;;;;;;5066677;28;20511;-64
2024/03/02 02:38:01;;;;;;;4.65;3.20;;;;;;;;;;5066301;28;20106;-66
2024/03/02 02:40:31;;;;;;;5.55;3.38;;;;;;;;;;5065551;28;20052;-64
2024/03/02 02:42:59;;;;;;;5.80;3.28;;;;;;;;;;5068606;28;20105;-63
2024/03/02 02:45:28;;;;;;;5.40;3.20;;;;;;;;;;5068247;28;20045;-64
2024/03/02 02:47:57;;;;;;;5.15;3.25;;;;;;;;;;5067516;28;20052;-63
2024/03/02 02:50:25;;;;;;;4.35;3.13;;;;;;;;;;5064359;28;20136;-65
2024/03/02 02:52:53;;;;;;;4.97;3.13;;;;;;;;;;5067796;28;20056;-65
2024/03/02 02:55:22;;;;;;;4.38;3.25;;;;;;;;;;5068530;28;20098;-63
2024/03/02 02:57:51;;;;;;;4.20;3.08;;;;;;;;;;5067660;28;20048;-63
2024/03/02 03:00:22;;;;;;;7.20;3.10;;;;;;;;;;5067023;28;20127;-69
2024/03/02 03:02:51;;;;;;;3.70;2.90;;;;;;;;;;5065125;28;20139;-63
2024/03/02 03:05:18;;;;;;;5.50;3.75;;;;;;;;;;5073110;28;20049;-65
2024/03/02 03:07:49;;;;;;;4.68;3.20;;;;;;;;;;5072648;28;20450;-62
2024/03/02 03:10:21;;;;;;;4.82;3.20;;;;;;;;;;5087260;28;20048;-63
2024/03/02 03:12:51;;;;;;;4.22;3.38;;;;;;;;;;5088955;28;20044;-63
2024/03/02 03:15:20;;;;;;;4.93;3.50;;;;;;;;;;5087768;28;20048;-65
2024/03/02 03:17:48;;;;;;;3.53;2.90;;;;;;;;;;5086268;28;20051;-64
2024/03/02 03:20:17;;;;;;;4.68;3.38;;;;;;;;;;5086770;28;20180;-63
2024/03/02 03:22:45;;;;;;;4.45;3.05;;;;;;;;;;5088927;28;20063;-64
2024/03/02 03:25:14;;;;;;;6.47;4.13;;;;;;;;;;5088463;28;20048;-64
2024/03/02 03:27:42;;;;;;;5.55;3.47;;;;;;;;;;5086186;28;20055;-64
2024/03/02 03:30:12;;;;;;;4.20;3.10;;;;;;;;;;5092248;28;20032;-65
2024/03/02 03:32:41;;;;;;;6.20;3.42;;;;;;;;;;5091542;28;20040;-62
2024/03/02 03:35:09;;;;;;;6.53;3.25;;;;;;;;;;5091495;28;20048;-63
2024/03/02 03:37:38;;;;;;;5.57;3.38;;;;;;;;;;5091097;28;20055;-63
2024/03/02 03:40:09;;;;;;;5.00;3.50;;;;;;;;;;5091364;28;20040;-63
2024/03/02 03:42:39;;;;;;;5.55;3.22;;;;;;;;;;5090989;28;20047;-63
2024/03/02 03:45:09;;;;;;;5.30;3.55;;;;;;;;;;5092353;28;20079;-67
2024/03/02 03:47:38;;;;;;;5.63;3.58;;;;;;;;;;5089835;28;20451;-63
2024/03/02 03:50:07;;;;;;;4.30;3.15;;;;;;;;;;5087227;28;20048;-67
2024/03/02 03:52:36;;;;;;;4.15;3.10;;;;;;;;;;5090234;28;20508;-66
2024/03/02 03:55:05;;;;;;;5.47;4.03;;;;;;;;;;5089982;28;20497;-66
2024/03/02 03:57:34;;;;;;;4.18;3.13;;;;;;;;;;5090560;28;20296;-65
2024/03/02 04:00:03;;;;;;;5.88;3.83;;;;;;;;;;5089439;28;20408;-64
2024/03/02 04:02:32;;;;;;;7.13;3.40;;;;;;;;;;5090602;28;20066;-67
2024/03/02 04:05:04;;;;;;;5.43;3.40;;;;;;;;;;5090393;28;20086;-65
2024/03/02 04:07:33;;;;;;;5.38;3.55;;;;;;;;;;5090077;28;20052;-68
2024/03/02 04:10:01;;;;;;;5.82;3.67;;;;;;;;;;5091005;28;20492;-65
2024/03/02 04:12:30;;;;;;;4.93;3.53;;;;;;;;;;5090976;28;20044;-64
2024/03/02 04:14:58;;;;;;;5.65;3.78;;;;;;;;;;5091612;28;20117;-69
2024/03/02 04:17:26;;;;;;;4.75;3.65;;;;;;;;;;5092954;28;20059;-63
2024/03/02 04:19:55;;;;;;;4.25;3.40;;;;;;;;;;5090567;28;20047;-66
2024/03/02 04:22:24;;;;;;;6.50;3.95;;;;;;;;;;5091125;28;20511;-62
2024/03/02 04:24:53;;;;;;;7.00;4.25;;;;;;;;;;5092891;28;20055;-62
2024/03/02 04:27:22;;;;;;;6.50;4.00;;;;;;;;;;5089690;28;20054;-63
2024/03/02 04:29:50;;;;;;;6.47;4.45;;;;;;;;;;5090476;28;20043;-63
2024/03/02 04:32:20;;;;;;;4.95;3.55;;;;;;;;;;5089476;28;20062;-66
2024/03/02 04:34:48;;;;;;;4.70;2.90;;;;;;;;;;5091746;28;20044;-61
2024/03/02 04:37:17;;;;;;;6.35;4.18;;;;;;;;;;5091978;28;20098;-61
2024/03/02 04:39:46;;;;;;;5.55;3.30;;;;;;;;;;5090233;28;20512;-64
2024/03/02 04:42:15;;;;;;;5.00;3.72;;;;;;;;;;5089997;28;20441;-62
2024/03/02 04:44:43;;;;;;;5.60;3.63;;;;;;;;;;5091190;28;20506;-62
2024/03/02 04:47:12;;;;;;;5.90;3.90;;;;;;;;;;5093344;28;20078;-62
2024/03/02 04:49:40;;;;;;;5.47;3.75;;;;;;;;;;5090424;28;20462;-62
2024/03/02 04:52:09;;;;;;;7.32;4.40;;;;;;;;;;5089409;28;20055;-62
2024/03/02 04:55:09;;;;;;;4.53;3.60;;;;;;;;;;5090974;28;20081;-65
2024/03/02 04:57:28;;;;;;;6.75;4.13;;;;;;;;;;5090029;28;20054;-61
2024/03/02 04:59:56;;;;;;;6.38;4.15;;;;;;;;;;5090911;28;20052;-61
2024/03/02 05:02:25;;;;;;;5.72;3.75;;;;;;;;;;5088021;28;20135;-62
2024/03/02 05:04:53;;;;;;;6.32;4.00;;;;;;;;;;5088658;28;20055;-63
2024/03/02 05:07:21;;;;;;;4.82;3.35;;;;;;;;;;5087039;28;20417;-63
2024/03/02 05:09:50;;;;;;;5.07;3.58;;;;;;;;;;5089613;28;20072;-62
2024/03/02 05:12:40;;;;;;;5.78;3.97;;;;;;;;;;5089380;28;20056;-64
2024/03/02 05:15:10;;;;;;;5.30;3.63;;;;;;;;;;5086787;28;20127;-62
2024/03/02 05:17:38;;;;;;;6.38;4.10;;;;;;;;;;5089609;28;20062;-64
2024/03/02 05:20:08;;;;;;;6.75;4.22;;;;;;;;;;5089229;28;20512;-62
2024/03/02 05:22:36;;;;;;;7.40;3.92;;;;;;;;;;5090518;28;20044;-61
2024/03/02 05:25:05;;;;;;;5.70;4.18;;;;;;;;;;5090335;28;20056;-62
2024/03/02 05:27:33;;;;;;;5.38;3.42;;;;;;;;;;5090126;28;20071;-64
2024/03/02 05:30:02;;;;;;;5.10;3.63;;;;;;;;;;5082350;28;20509;-65
2024/03/02 05:32:32;;;;;;;5.78;4.03;;;;;;;;;;5089580;28;20044;-63
2024/03/02 05:35:00;;;;;;;5.65;3.97;;;;;;;;;;5089523;28;20040;-62
2024/03/02 05:37:28;;;;;;;6.38;4.10;;;;;;;;;;5086256;28;20041;-61
2024/03/02 05:39:57;;;;;;;5.80;3.92;;;;;;;;;;5088636;28;20501;-63
2024/03/02 05:42:26;;;;;;;8.02;3.97;;;;;;;;;;5088420;28;20044;-63
2024/03/02 05:44:55;;;;;;;5.93;3.63;;;;;;;;;;5088190;28;20142;-61
2024/03/02 05:47:23;;;;;;;6.68;4.00;;;;;;;;;;5093558;28;20481;-62
2024/03/02 05:49:53;;;;;;;5.57;3.58;;;;;;;;;;5087499;28;20070;-61
2024/03/02 05:52:21;;;;;;;7.88;4.25;;;;;;;;;;5089129;28;20565;-64
2024/03/02 05:54:50;;;;;;;6.50;4.43;;;;;;;;;;5093064;28;20461;-63
2024/03/02 05:57:31;;;;;;;5.40;4.00;;;;;;;;;;5092865;28;20424;-62
2024/03/02 06:00:00;;;;;;;6.80;3.80;;;;;;;;;;5087157;28;20040;-63
2024/03/02 06:02:28;;;;;;;6.82;3.90;;;;;;;;;;5089025;28;20044;-63
2024/03/02 06:04:58;;;;;;;6.10;3.72;;;;;;;;;;5088266;28;20044;-64
2024/03/02 06:07:27;;;;;;;6.90;4.97;;;;;;;;;;5088576;28;20076;-61
2024/03/02 06:09:55;;;;;;;7.03;3.72;;;;;;;;;;5088536;28;20047;-63
2024/03/02 06:12:23;;;;;;;6.22;4.07;;;;;;;;;;5092322;28;20457;-63
2024/03/02 06:14:52;;;;;;;7.18;4.18;;;;;;;;;;5091959;28;20099;-61
2024/03/02 06:17:20;;;;;;;6.00;3.90;;;;;;;;;;5096477;28;20059;-63
2024/03/02 06:19:49;;;;;;;5.82;3.97;;;;;;;;;;5092974;28;20040;-64
2024/03/02 06:22:19;;;;;;;6.55;4.35;;;;;;;;;;5090121;28;20052;-61
2024/03/02 06:24:47;;;;;;;7.00;4.07;;;;;;;;;;5099585;28;20052;-62
2024/03/02 06:27:15;;;;;;;5.97;4.15;;;;;;;;;;5082110;28;20077;-63
2024/03/02 06:29:44;;;;;;;7.55;4.50;;;;;;;;;;5089465;28;20430;-62
2024/03/02 06:32:12;;;;;;;6.18;4.30;;;;;;;;;;5089288;28;20197;-63
2024/03/02 06:34:41;;;;;;;6.00;4.15;;;;;;;;;;5088838;28;20080;-62
2024/03/02 06:37:09;;;;;;;9.15;4.63;;;;;;;;;;5088680;28;20075;-61
2024/03/02 06:39:39;;;;;;;8.00;4.28;;;;;;;;;;5089124;28;20082;-61
2024/03/02 06:42:07;;;;;;;6.43;4.10;;;;;;;;;;5088121;28;20083;-63
2024/03/02 06:44:35;;;;;;;6.05;3.95;;;;;;;;;;5092682;28;20044;-63
2024/03/02 06:47:04;;;;;;;6.32;4.03;;;;;;;;;;5088577;28;20093;-61
2024/03/02 06:49:34;;;;;;;8.35;4.05;;;;;;;;;;5087676;28;20044;-66
2024/03/02 06:52:02;;;;;;;6.97;4.57;;;;;;;;;;5088547;28;20102;-62
2024/03/02 06:54:31;;;;;;;6.78;4.47;;;;;;;;;;5088688;28;20553;-67
2024/03/02 06:57:00;;;;;;;6.60;4.35;;;;;;;;;;5086896;28;20093;-63
2024/03/02 06:59:29;;;;;;;7.00;4.72;;;;;;;;;;5084537;28;20044;-64
2024/03/02 07:01:57;;;;;;;8.70;5.30;;;;;;;;;;5084248;28;20048;-62
2024/03/02 07:04:26;;;;;;;6.95;4.63;;;;;;;;;;5086761;28;20425;-62
2024/03/02 07:06:54;;;;;;;7.78;5.32;;;;;;;;;;5084863;28;20489;-63
2024/03/02 07:09:23;;;;;;;7.75;4.70;;;;;;;;;;5084208;28;20478;-64
2024/03/02 07:11:51;;;;;;;8.30;4.38;;;;;;;;;;5081439;28;20479;-65
2024/03/02 07:14:22;;;;;;;7.20;4.53;;;;;;;;;;5080225;28;20048;-62
2024/03/02 07:16:49;;;;;;;8.82;4.90;;;;;;;;;;5086077;28;20083;-63
2024/03/02 07:19:18;;;;;;;6.75;4.85;;;;;;;;;;5086784;28;20075;-64
2024/03/02 07:21:46;;;;;;;8.38;5.28;;;;;;;;;;5082870;28;20147;-64
2024/03/02 07:24:16;;;;;;;7.85;5.30;;;;;;;;;;5083380;28;20052;-65
2024/03/02 07:26:44;;;;;;;8.38;5.05;;;;;;;;;;5081278;28;20599;-65
2024/03/02 07:29:16;;;;;;;7.75;4.82;;;;;;;;;;5084728;28;20099;-62
2024/03/02 07:31:45;;;;;;;9.98;5.82;;;;;;;;;;5081157;28;20048;-62
2024/03/02 07:34:14;;;;;;;7.93;5.43;;;;;;;;;;5085985;28;20226;-63
2024/03/02 07:36:42;;;;;;;7.35;5.30;;;;;;;;;;5085072;28;20098;-64
2024/03/02 07:39:11;;;;;;;8.95;5.60;;;;;;;;;;5084706;28;20056;-63
2024/03/02 07:41:39;;;;;;;8.27;5.40;;;;;;;;;;5077631;28;20114;-62
2024/03/02 07:44:07;;;;;;;8.48;5.50;;;;;;;;;;5081512;28;20494;-67
2024/03/02 07:46:36;;;;;;;7.32;4.78;;;;;;;;;;5078915;28;20136;-62
2024/03/02 07:49:06;;;;;;;9.85;5.85;;;;;;;;;;5079231;28;20048;-63
2024/03/02 07:51:34;;;;;;;9.52;5.47;;;;;;;;;;5083024;28;20347;-63
2024/03/02 07:54:02;;;;;;;10.63;5.95;;;;;;;;;;5085357;28;20381;-63
2024/03/02 07:56:31;;;;;;;8.43;5.30;;;;;;;;;;5086520;28;20044;-64
2024/03/02 07:59:01;;;;;;;8.93;5.75;;;;;;;;;;5086765;28;20113;-64
2024/03/02 08:01:30;;;;;;;9.52;5.95;;;;;;;;;;5085106;28;20043;-68
2024/03/02 08:03:59;;;;;;;9.75;6.03;;;;;;;;;;5084126;28;20090;-62
2024/03/02 08:06:29;;;;;;;8.52;4.93;;;;;;;;;;5089057;28;20056;-63
2024/03/02 08:08:58;;;;;;;11.13;5.97;;;;;;;;;;5077847;28;20052;-62
2024/03/02 08:11:27;;;;;;;11.18;5.97;;;;;;;;;;5070071;28;20048;-64
2024/03/02 08:13:55;;;;;;;8.95;6.00;;;;;;;;;;5066673;28;20072;-63
2024/03/02 08:16:25;;;;;;;8.93;5.65;;;;;;;;;;5073119;28;20048;-67
2024/03/02 08:18:53;;;;;;;11.23;6.65;;;;;;;;;;5068818;28;20040;-63
2024/03/02 08:21:22;;;;;;;9.43;5.75;;;;;;;;;;5071334;28;20117;-66
2024/03/02 08:23:52;;;;;;;9.70;6.13;;;;;;;;;;5070305;28;20348;-64
2024/03/02 08:26:20;;;;;;;8.88;5.97;;;;;;;;;;5067713;28;20041;-68
2024/03/02 08:28:48;;;;;;;10.10;6.53;;;;;;;;;;5068877;28;20067;-62
2024/03/02 08:31:17;;;;;;;10.65;6.45;;;;;;;;;;5069249;28;20103;-63
2024/03/02 08:33:45;;;;;;;12.25;6.30;;;;;;;;;;5068743;28;20048;-66
2024/03/02 08:36:13;;;;;;;11.98;5.82;;;;;;;;;;5069744;28;20421;-64
2024/03/02 08:38:44;;;;;;;10.52;6.65;;;;;;;;;;5073497;28;20049;-64
2024/03/02 08:41:15;;;;;;;10.32;6.15;;;;;;;;;;5066243;28;20047;-63
2024/03/02 08:43:44;;;;;;;12.25;7.32;;;;;;;;;;5066438;28;20037;-63
2024/03/02 08:46:12;;;;;;;12.95;7.15;;;;;;;;;;5068194;28;20130;-65
2024/03/02 08:48:41;;;;;;;11.90;7.32;;;;;;;;;;5069262;28;20114;-65
2024/03/02 08:51:10;;;;;;;11.80;7.20;;;;;;;;;;5068706;28;20473;-64
2024/03/02 08:53:38;;;;;;;13.25;7.22;;;;;;;;;;5067492;28;20125;-67
2024/03/02 08:56:07;;;;;;;11.13;7.13;;;;;;;;;;5068106;28;20094;-64
2024/03/02 08:58:37;;;;;;;14.18;7.18;;;;;;;;;;5067608;28;20063;-65
2024/03/02 09:01:07;;;;;;;13.02;7.75;;;;;;;;;;5073278;28;20048;-66
2024/03/02 09:03:35;;;;;;;14.88;8.00;;;;;;;;;;5070589;28;20551;-65
2024/03/02 09:06:04;;;;;;;13.73;8.13;;;;;;;;;;5070690;28;20076;-65
2024/03/02 09:08:32;;;;;;;13.35;7.55;;;;;;;;;;5081023;28;20373;-63
2024/03/02 09:11:01;;;;;;;14.70;7.78;;;;;;;;;;5090697;28;20093;-65
2024/03/02 09:13:29;;;;;;;13.38;7.93;;;;;;;;;;5090006;28;20048;-64
2024/03/02 09:15:59;;;;;;;15.75;7.57;;;;;;;;;;5088673;28;20060;-64
2024/03/02 09:18:27;;;;;;;11.20;6.68;;;;;;;;;;5089869;28;20055;-64
2024/03/02 09:20:55;;;;;;;12.88;6.85;;;;;;;;;;5090202;28;20436;-63
2024/03/02 09:23:24;;;;;;;11.75;6.63;;;;;;;;;;5090330;28;20052;-67
2024/03/02 09:25:52;;;;;;;12.68;6.88;;;;;;;;;;5087248;28;20088;-65
2024/03/02 09:28:21;;;;;;;10.82;6.20;;;;;;;;;;5085816;28;20048;-67
2024/03/02 09:30:49;;;;;;;10.82;6.47;;;;;;;;;;5085941;28;20079;-65
2024/03/02 09:33:19;;;;;;;9.77;5.88;;;;;;;;;;5088889;28;20204;-64
2024/03/02 09:35:48;;;;;;;9.55;5.97;;;;;;;;;;5088614;28;20049;-65
2024/03/02 09:38:18;;;;;;;14.30;6.75;;;;;;;;;;5086429;28;20466;-66
2024/03/02 09:40:46;;;;;;;10.80;6.07;;;;;;;;;;5085616;28;20052;-65
2024/03/02 09:43:15;;;;;;;11.35;6.60;;;;;;;;;;5076399;28;20037;-67
2024/03/02 09:45:43;;;;;;;11.93;6.28;;;;;;;;;;5086500;28;20140;-63
2024/03/02 09:48:12;;;;;;;10.75;6.75;;;;;;;;;;5088138;28;20052;-68
2024/03/02 09:50:42;;;;;;;10.82;6.53;;;;;;;;;;5082479;28;20101;-65
2024/03/02 09:53:12;;;;;;;13.88;7.60;;;;;;;;;;5093687;28;20448;-64
2024/03/02 09:55:43;;;;;;;13.57;7.18;;;;;;;;;;5086210;28;20199;-65
2024/03/02 09:58:12;;;;;;;14.93;8.13;;;;;;;;;;5086164;28;20040;-65
2024/03/02 10:00:40;;;;;;;11.75;6.80;;;;;;;;;;5083846;28;20048;-67
2024/03/02 10:03:13;;;;;;;13.10;7.10;;;;;;;;;;5085817;28;20052;-65
2024/03/02 10:05:43;;;;;;;16.55;8.52;;;;;;;;;;5085027;28;20055;-65
2024/03/02 10:08:11;;;;;;;14.10;7.63;;;;;;;;;;5081120;28;20351;-65
2024/03/02 10:10:41;;;;;;;12.10;7.32;;;;;;;;;;5086746;28;20048;-64
2024/03/02 10:13:10;;;;;;;14.52;8.02;;;;;;;;;;5088826;28;20116;-63
2024/03/02 10:15:41;;;;;;;15.70;8.15;;;;;;;;;;5088302;28;20056;-67
2024/03/02 10:18:11;;;;;;;16.08;8.50;;;;;;;;;;5086814;28;20589;-64
2024/03/02 10:20:40;;;;;;;13.77;7.05;;;;;;;;;;5087175;28;20527;-63
2024/03/02 10:23:13;;;;;;;14.35;7.28;;;;;;;;;;5085645;28;20048;-63
2024/03/02 10:25:41;;;;;;;16.00;8.02;;;;;;;;;;5079323;28;20196;-65
2024/03/02 10:28:25;;;;;;;18.55;7.75;;;;;;;;;;5088361;28;20048;-66
2024/03/02 10:30:53;;;;;;;11.23;6.72;;;;;;;;;;5093270;28;20561;-65
2024/03/02 10:33:22;;;;;;;14.82;7.13;;;;;;;;;;5090720;28;20476;-63
2024/03/02 10:35:51;;;;;;;13.13;6.93;;;;;;;;;;5087915;28;20105;-65
2024/03/02 10:38:21;;;;;;;12.02;6.65;;;;;;;;;;5086408;28;20389;-66
2024/03/02 10:40:50;;;;;;;10.23;6.30;;;;;;;;;;5086347;28;20385;-65
2024/03/02 10:43:18;;;;;;;11.43;5.97;;;;;;;;;;5088686;28;20121;-62
2024/03/02 10:45:49;;;;;;;14.68;7.00;;;;;;;;;;5085846;28;20036;-65
2024/03/02 10:48:17;;;;;;;13.15;7.35;;;;;;;;;;5088750;28;20075;-63
2024/03/02 10:50:45;;;;;;;13.50;7.25;;;;;;;;;;5083783;28;20040;-65
2024/03/02 10:53:14;;;;;;;16.83;6.85;;;;;;;;;;5083918;28;20056;-63
2024/03/02 10:55:44;;;;;;;12.13;7.50;;;;;;;;;;5087356;28;20270;-62
2024/03/02 10:58:15;;;;;;;17.92;7.43;;;;;;;;;;5087557;28;20052;-63
2024/03/02 11:00:45;;;;;;;17.55;8.15;;;;;;;;;;5085737;28;20056;-70
2024/03/02 11:03:15;;;;;;;16.80;7.72;;;;;;;;;;5083970;28;20048;-63
2024/03/02 11:05:45;;;;;;;13.48;7.68;;;;;;;;;;5082565;28;20044;-63
2024/03/02 11:08:14;;;;;;;14.98;8.15;;;;;;;;;;5083015;28;20105;-62
2024/03/02 11:10:50;;;;;;;15.95;8.07;;;;;;;;;;5086273;28;20437;-63
2024/03/02 11:13:24;;;;;;;15.95;8.20;;;;;;;;;;5086629;28;20048;-65
2024/03/02 11:15:53;;;;;;;16.45;8.48;;;;;;;;;;5083062;28;20056;-67
2024/03/02 11:18:22;;;;;;;13.60;7.45;;;;;;;;;;5084971;28;20333;-63
2024/03/02 11:20:50;;;;;;;15.40;8.68;;;;;;;;;;5086071;28;20489;-69
2024/03/02 11:23:19;;;;;;;14.57;8.48;;;;;;;;;;5091431;28;20150;-63
2024/03/02 11:25:49;;;;;;;17.70;9.23;;;;;;;;;;5092552;28;20097;-67
2024/03/02 11:28:17;;;;;;;13.20;7.40;;;;;;;;;;5087448;28;20459;-63
2024/03/02 11:30:51;;;;;;;15.27;8.25;;;;;;;;;;5084304;28;20600;-67
2024/03/02 11:33:27;;;;;;;14.20;7.60;;;;;;;;;;5087700;28;20048;-65
2024/03/02 11:35:57;;;;;;;14.18;8.18;;;;;;;;;;5088387;28;20052;-64
2024/03/02 11:38:29;;;;;;;13.13;8.32;;;;;;;;;;5086652;28;20401;-67
2024/03/02 11:41:00;;;;;;;13.85;7.43;;;;;;;;;;5085769;28;20066;-69
2024/03/02 11:43:29;;;;;;;14.02;8.27;;;;;;;;;;5082507;28;20036;-62
2024/03/02 11:45:59;;;;;;;12.95;7.47;;;;;;;;;;5093907;28;20540;-62
2024/03/02 11:48:27;;;;;;;15.27;8.80;;;;;;;;;;5092203;28;20101;-64
2024/03/02 11:50:59;;;;;;;15.18;7.75;;;;;;;;;;5088277;28;20079;-67
2024/03/02 11:53:28;;;;;;;15.30;8.32;;;;;;;;;;5093263;28;20043;-65
2024/03/02 11:56:01;;;;;;;13.85;7.47;;;;;;;;;;5092520;28;20137;-64
2024/03/02 11:58:29;;;;;;;14.88;8.65;;;;;;;;;;5090224;28;20565;-67
2024/03/02 12:00:58;;;;;;;15.30;7.93;;;;;;;;;;5095053;28;20408;-63
2024/03/02 12:03:27;;;;;;;14.30;7.97;;;;;;;;;;5090112;28;20036;-66
2024/03/02 12:05:56;;;;;;;14.13;8.02;;;;;;;;;;5089222;28;20056;-66
2024/03/02 12:08:24;;;;;;;11.80;7.57;;;;;;;;;;5086050;28;20052;-62
2024/03/02 12:11:01;;;;;;;12.70;8.07;;;;;;;;;;5092456;28;20165;-67
2024/03/02 12:13:32;;;;;;;12.82;7.95;;;;;;;;;;5089101;28;20077;-64
2024/03/02 12:16:01;;;;;;;13.75;7.80;;;;;;;;;;5085030;28;20063;-68
2024/03/02 12:18:29;;;;;;;17.15;7.93;;;;;;;;;;5091285;28;20036;-63
2024/03/02 12:20:58;;;;;;;13.57;7.85;;;;;;;;;;5086520;28;20048;-63
2024/03/02 12:23:27;;;;;;;12.68;7.75;;;;;;;;;;5081728;28;20409;-63
2024/03/02 12:25:56;;;;;;;13.77;7.40;;;;;;;;;;5086137;28;20489;-68
2024/03/02 12:28:26;;;;;;;11.05;7.72;;;;;;;;;;5088608;28;20413;-69
2024/03/02 12:30:54;;;;;;;14.05;7.45;;;;;;;;;;5087257;28;20052;-67
2024/03/02 12:33:23;;;;;;;12.20;7.18;;;;;;;;;;5085903;28;20078;-69
2024/03/02 12:35:51;;;;;;;14.00;7.93;;;;;;;;;;5085653;28;20047;-66
2024/03/02 12:38:20;;;;;;;11.20;6.97;;;;;;;;;;5086087;28;20101;-69
2024/03/02 12:40:50;;;;;;;11.38;7.07;;;;;;;;;;5087605;28;20182;-70
2024/03/02 12:43:18;;;;;;;10.25;6.43;;;;;;;;;;5086277;28;20072;-71
2024/03/02 12:45:48;;;;;;;11.98;7.10;;;;;;;;;;5092120;28;20040;-68
2024/03/02 12:48:16;;;;;;;13.25;7.63;;;;;;;;;;5090512;28;20044;-69
2024/03/02 12:50:45;;;;;;;11.52;7.25;;;;;;;;;;5087406;28;20052;-69
2024/03/02 12:53:16;;;;;;;16.33;7.55;;;;;;;;;;5086697;28;20048;-71
2024/03/02 12:55:45;;;;;;;14.88;8.02;;;;;;;;;;5089067;28;20048;-72
2024/03/02 12:58:23;;;;;;;11.95;7.03;;;;;;;;;;5085634;28;20476;-67
2024/03/02 13:01:06;;;;;;;12.88;7.63;;;;;;;;;;5058323;28;20076;-67
2024/03/02 13:03:36;;;;;;;12.85;7.60;;;;;;;;;;5086470;28;20044;-67
2024/03/02 13:06:05;;;;;;;12.52;7.68;;;;;;;;;;5087208;28;20059;-69
2024/03/02 13:08:35;;;;;;;15.63;8.68;;;;;;;;;;5082997;28;20113;-67
2024/03/02 13:11:03;;;;;;;12.02;7.82;;;;;;;;;;5088433;28;20071;-66
2024/03/02 13:13:32;;;;;;;10.95;7.43;;;;;;;;;;5088591;28;20276;-68
2024/03/02 13:16:02;;;;;;;14.13;8.75;;;;;;;;;;5088202;28;20051;-69
2024/03/02 13:18:31;;;;;;;15.43;8.65;;;;;;;;;;5085570;28;20277;-67
2024/03/02 13:20:59;;;;;;;12.73;8.13;;;;;;;;;;5090829;28;20048;-63
2024/03/02 13:23:30;;;;;;;11.15;7.55;;;;;;;;;;5086384;28;20047;-62
2024/03/02 13:25:59;;;;;;;14.70;7.80;;;;;;;;;;5087404;28;20040;-67
2024/03/02 13:28:28;;;;;;;12.55;7.78;;;;;;;;;;5083658;28;20130;-67
2024/03/02 13:30:56;;;;;;;11.25;7.65;;;;;;;;;;5083705;28;20052;-63
2024/03/02 13:33:26;;;;;;;14.77;8.52;;;;;;;;;;5083665;28;20129;-65
2024/03/02 13:35:54;;;;;;;13.05;8.23;;;;;;;;;;5087079;28;20051;-64
2024/03/02 13:38:23;;;;;;;13.25;8.38;;;;;;;;;;5086688;28;20056;-66
2024/03/02 13:40:52;;;;;;;14.15;8.13;;;;;;;;;;5087886;28;20153;-66
2024/03/02 13:43:20;;;;;;;14.48;8.27;;;;;;;;;;5089610;28;20044;-65
2024/03/02 13:45:48;;;;;;;13.40;8.50;;;;;;;;;;5094366;28;20055;-64
2024/03/02 13:48:17;;;;;;;13.68;8.05;;;;;;;;;;5095494;28;20063;-64
2024/03/02 13:50:47;;;;;;;13.48;7.82;;;;;;;;;;5088481;28;20047;-67
2024/03/02 13:53:15;;;;;;;15.02;8.27;;;;;;;;;;5087131;28;20076;-62
2024/03/02 13:55:43;;;;;;;13.18;7.97;;;;;;;;;;5086614;28;20093;-63
2024/03/02 13:58:12;;;;;;;14.40;8.18;;;;;;;;;;5087367;28;20469;-63
2024/03/02 14:00:40;;;;;;;15.75;8.65;;;;;;;;;;5086238;28;20492;-70
2024/03/02 14:03:09;;;;;;;16.13;8.35;;;;;;;;;;5085489;28;20063;-64
2024/03/02 14:05:37;;;;;;;13.35;7.95;;;;;;;;;;5089110;28;20136;-64
2024/03/02 14:08:07;;;;;;;14.02;7.60;;;;;;;;;;5088546;28;20063;-64
2024/03/02 14:10:36;;;;;;;14.48;8.50;;;;;;;;;;5087475;28;20635;-64
2024/03/02 14:13:04;;;;;;;13.95;7.80;;;;;;;;;;5087471;28;20196;-66
2024/03/02 14:15:33;;;;;;;11.02;6.47;;;;;;;;;;5089134;28;20163;-67
2024/03/02 14:18:01;;;;;;;12.43;7.32;;;;;;;;;;5089541;28;20101;-66
2024/03/02 14:20:30;;;;;;;14.88;8.27;;;;;;;;;;5075083;28;20075;-65
2024/03/02 14:22:59;;;;;;;11.30;7.18;;;;;;;;;;5087163;28;20126;-64
2024/03/02 14:25:31;;;;;;;11.02;6.88;;;;;;;;;;5090256;28;20563;-63
2024/03/02 14:27:59;;;;;;;11.38;6.70;;;;;;;;;;5088443;28;20097;-64
2024/03/02 14:30:47;;;;;;;13.85;7.25;;;;;;;;;;5088942;28;20056;-62
2024/03/02 14:33:16;;;;;;;11.32;6.47;;;;;;;;;;5083619;28;20062;-63
2024/03/02 14:35:46;;;;;;;11.77;7.18;;;;;;;;;;5083834;28;20071;-67
2024/03/02 14:38:15;;;;;;;13.15;7.30;;;;;;;;;;5085821;28;20055;-63
2024/03/02 14:40:45;;;;;;;13.18;7.13;;;;;;;;;;5079520;28;20055;-66
2024/03/02 14:43:13;;;;;;;13.07;7.72;;;;;;;;;;5086816;28;20052;-67
2024/03/02 14:45:41;;;;;;;11.75;7.22;;;;;;;;;;5091687;28;20700;-63
2024/03/02 14:48:10;;;;;;;10.43;6.82;;;;;;;;;;5087277;28;20055;-63
2024/03/02 14:50:38;;;;;;;11.57;7.25;;;;;;;;;;5082696;28;20079;-65